sensor_id;sensor_type;location;lat;lon;timestamp;pressure;altitude;pressure_sealevel;temperature;humidity
46087;BME280;31824;49.648;8.640;2022-08-21T00:00:24;100363.44;;;18.13;100.00
46087;BME280;31824;49.648;8.640;2022-08-21T00:03:25;100357.53;;;18.17;100.00
46087;BME280;31824;49.648;8.640;2022-08-21T00:06:27;100364.00;;;18.35;100.00
46087;BME280;31824;49.648;8.640;2022-08-21T00:09:28;100349.91;;;18.23;100.00
46087;BME280;31824;49.648;8.640;2022-08-21T00:12:30;100353.28;;;18.20;100.00
46087;BME280;31824;49.648;8.640;2022-08-21T00:15:35;100357.72;;;18.20;100.00
46087;BME280;31824;49.648;8.640;2022-08-21T00:18:37;100352.69;;;18.11;100.00
46087;BME280;31824;49.648;8.640;2022-08-21T00:21:39;100357.53;;;18.03;100.00
46087;BME280;31824;49.648;8.640;2022-08-21T00:24:44;100348.53;;;18.01;100.00
46087;BME280;31824;49.648;8.640;2022-08-21T00:27:46;100343.19;;;17.75;100.00
46087;BME280;31824;49.648;8.640;2022-08-21T00:30:50;100342.72;;;17.80;100.00
46087;BME280;31824;49.648;8.640;2022-08-21T00:33:52;100337.09;;;17.62;100.00
46087;BME280;31824;49.648;8.640;2022-08-21T00:37:01;100334.03;;;17.83;100.00
46087;BME280;31824;49.648;8.640;2022-08-21T00:40:03;100345.47;;;17.55;100.00
46087;BME280;31824;49.648;8.640;2022-08-21T00:43:07;100338.03;;;17.63;100.00
46087;BME280;31824;49.648;8.640;2022-08-21T00:46:09;100327.78;;;17.55;100.00
46087;BME280;31824;49.648;8.640;2022-08-21T00:49:12;100339.44;;;17.58;100.00
46087;BME280;31824;49.648;8.640;2022-08-21T00:52:18;100340.97;;;17.54;100.00
46087;BME280;31824;49.648;8.640;2022-08-21T00:55:21;100334.31;;;17.47;100.00
46087;BME280;31824;49.648;8.640;2022-08-21T00:58:26;100338.31;;;17.27;100.00
46087;BME280;31824;49.648;8.640;2022-08-21T01:01:28;100347.38;;;17.17;100.00
46087;BME280;31824;49.648;8.640;2022-08-21T01:04:30;100345.56;;;17.16;100.00
46087;BME280;31824;49.648;8.640;2022-08-21T01:07:32;100347.88;;;17.12;100.00
46087;BME280;31824;49.648;8.640;2022-08-21T01:10:34;100348.59;;;17.23;100.00
46087;BME280;31824;49.648;8.640;2022-08-21T01:13:38;100347.28;;;17.29;100.00
46087;BME280;31824;49.648;8.640;2022-08-21T01:16:48;100347.19;;;17.28;100.00
46087;BME280;31824;49.648;8.640;2022-08-21T01:19:51;100352.69;;;17.31;100.00
46087;BME280;31824;49.648;8.640;2022-08-21T01:22:53;100349.31;;;17.20;100.00
46087;BME280;31824;49.648;8.640;2022-08-21T01:25:54;100352.06;;;17.21;100.00
46087;BME280;31824;49.648;8.640;2022-08-21T01:29:00;100350.34;;;17.22;100.00
46087;BME280;31824;49.648;8.640;2022-08-21T01:32:06;100351.47;;;17.12;100.00
46087;BME280;31824;49.648;8.640;2022-08-21T01:35:10;100351.84;;;17.05;100.00
46087;BME280;31824;49.648;8.640;2022-08-21T01:38:12;100352.44;;;17.01;100.00
46087;BME280;31824;49.648;8.640;2022-08-21T01:41:15;100357.97;;;17.04;100.00
46087;BME280;31824;49.648;8.640;2022-08-21T01:44:20;100354.59;;;16.81;100.00
46087;BME280;31824;49.648;8.640;2022-08-21T01:47:23;100357.94;;;16.91;100.00
46087;BME280;31824;49.648;8.640;2022-08-21T01:50:25;100353.44;;;16.90;100.00
46087;BME280;31824;49.648;8.640;2022-08-21T01:53:26;100349.97;;;16.91;100.00
46087;BME280;31824;49.648;8.640;2022-08-21T01:56:39;100351.84;;;16.80;100.00
46087;BME280;31824;49.648;8.640;2022-08-21T01:59:41;100344.50;;;16.76;100.00
46087;BME280;31824;49.648;8.640;2022-08-21T02:02:42;100353.94;;;16.72;100.00
46087;BME280;31824;49.648;8.640;2022-08-21T02:05:44;100345.78;;;16.69;100.00
46087;BME280;31824;49.648;8.640;2022-08-21T02:08:46;100343.28;;;16.59;100.00
46087;BME280;31824;49.648;8.640;2022-08-21T02:11:48;100339.53;;;16.55;100.00
46087;BME280;31824;49.648;8.640;2022-08-21T02:14:49;100332.16;;;16.51;100.00
46087;BME280;31824;49.648;8.640;2022-08-21T02:17:55;100334.06;;;16.53;100.00
46087;BME280;31824;49.648;8.640;2022-08-21T02:20:56;100326.97;;;16.52;100.00
46087;BME280;31824;49.648;8.640;2022-08-21T02:23:58;100324.31;;;16.52;100.00
46087;BME280;31824;49.648;8.640;2022-08-21T02:26:59;100329.97;;;16.45;100.00
46087;BME280;31824;49.648;8.640;2022-08-21T02:30:02;100322.84;;;16.44;100.00
46087;BME280;31824;49.648;8.640;2022-08-21T02:33:04;100322.88;;;16.32;100.00
46087;BME280;31824;49.648;8.640;2022-08-21T02:36:07;100319.75;;;16.38;100.00
46087;BME280;31824;49.648;8.640;2022-08-21T02:39:09;100315.53;;;16.28;100.00
46087;BME280;31824;49.648;8.640;2022-08-21T02:42:10;100322.19;;;16.35;100.00
46087;BME280;31824;49.648;8.640;2022-08-21T02:45:13;100321.03;;;16.31;100.00
46087;BME280;31824;49.648;8.640;2022-08-21T02:48:19;100315.03;;;16.34;100.00
46087;BME280;31824;49.648;8.640;2022-08-21T02:51:21;100313.78;;;16.29;100.00
46087;BME280;31824;49.648;8.640;2022-08-21T02:54:23;100310.16;;;16.15;100.00
46087;BME280;31824;49.648;8.640;2022-08-21T02:57:25;100311.31;;;16.18;100.00
46087;BME280;31824;49.648;8.640;2022-08-21T03:00:30;100312.69;;;16.13;100.00
46087;BME280;31824;49.648;8.640;2022-08-21T03:03:31;100306.72;;;16.04;100.00
46087;BME280;31824;49.648;8.640;2022-08-21T03:06:36;100310.03;;;16.13;100.00
46087;BME280;31824;49.648;8.640;2022-08-21T03:09:38;100316.16;;;16.12;100.00
46087;BME280;31824;49.648;8.640;2022-08-21T03:13:03;100316.84;;;16.10;100.00
46087;BME280;31824;49.648;8.640;2022-08-21T03:16:06;100319.25;;;16.18;100.00
46087;BME280;31824;49.648;8.640;2022-08-21T03:19:10;100313.50;;;16.12;100.00
46087;BME280;31824;49.648;8.640;2022-08-21T03:22:12;100313.13;;;16.19;100.00
46087;BME280;31824;49.648;8.640;2022-08-21T03:25:13;100317.41;;;16.17;100.00
46087;BME280;31824;49.648;8.640;2022-08-21T03:28:18;100319.00;;;16.15;100.00
46087;BME280;31824;49.648;8.640;2022-08-21T03:31:20;100325.00;;;16.13;100.00
46087;BME280;31824;49.648;8.640;2022-08-21T03:34:22;100323.13;;;15.86;100.00
46087;BME280;31824;49.648;8.640;2022-08-21T03:37:24;100325.19;;;15.91;100.00
46087;BME280;31824;49.648;8.640;2022-08-21T03:40:26;100318.97;;;15.90;100.00
46087;BME280;31824;49.648;8.640;2022-08-21T03:43:28;100324.72;;;15.96;100.00
46087;BME280;31824;49.648;8.640;2022-08-21T03:46:32;100329.09;;;15.96;100.00
46087;BME280;31824;49.648;8.640;2022-08-21T03:49:34;100326.47;;;15.72;100.00
46087;BME280;31824;49.648;8.640;2022-08-21T03:52:35;100328.66;;;15.78;100.00
46087;BME280;31824;49.648;8.640;2022-08-21T03:55:37;100324.75;;;15.84;100.00
46087;BME280;31824;49.648;8.640;2022-08-21T03:58:39;100326.72;;;15.87;100.00
46087;BME280;31824;49.648;8.640;2022-08-21T04:01:51;100331.63;;;15.70;100.00
46087;BME280;31824;49.648;8.640;2022-08-21T04:04:53;100337.75;;;15.81;100.00
46087;BME280;31824;49.648;8.640;2022-08-21T04:07:56;100337.84;;;15.95;100.00
46087;BME280;31824;49.648;8.640;2022-08-21T04:10:58;100337.16;;;15.85;100.00
46087;BME280;31824;49.648;8.640;2022-08-21T04:13:59;100343.59;;;15.77;100.00
46087;BME280;31824;49.648;8.640;2022-08-21T04:17:01;100349.94;;;15.79;100.00
46087;BME280;31824;49.648;8.640;2022-08-21T04:20:02;100360.19;;;15.51;100.00
46087;BME280;31824;49.648;8.640;2022-08-21T04:23:05;100360.31;;;15.52;100.00
46087;BME280;31824;49.648;8.640;2022-08-21T04:26:07;100356.66;;;15.50;100.00
46087;BME280;31824;49.648;8.640;2022-08-21T04:29:08;100358.56;;;15.65;100.00
46087;BME280;31824;49.648;8.640;2022-08-21T04:32:10;100363.66;;;15.62;100.00
46087;BME280;31824;49.648;8.640;2022-08-21T04:35:15;100368.03;;;15.61;100.00
46087;BME280;31824;49.648;8.640;2022-08-21T04:38:18;100362.38;;;15.57;100.00
46087;BME280;31824;49.648;8.640;2022-08-21T04:41:20;100365.97;;;15.57;100.00
46087;BME280;31824;49.648;8.640;2022-08-21T04:44:28;100361.03;;;15.38;100.00
46087;BME280;31824;49.648;8.640;2022-08-21T04:47:30;100366.88;;;15.58;100.00
46087;BME280;31824;49.648;8.640;2022-08-21T04:50:59;100368.72;;;15.59;100.00
46087;BME280;31824;49.648;8.640;2022-08-21T04:57:08;100366.19;;;15.60;100.00
46087;BME280;31824;49.648;8.640;2022-08-21T05:00:11;100370.47;;;15.46;100.00
46087;BME280;31824;49.648;8.640;2022-08-21T05:03:16;100372.66;;;15.52;100.00
46087;BME280;31824;49.648;8.640;2022-08-21T05:06:18;100372.63;;;15.64;100.00
46087;BME280;31824;49.648;8.640;2022-08-21T05:09:21;100376.91;;;15.74;100.00
46087;BME280;31824;49.648;8.640;2022-08-21T05:12:23;100377.59;;;15.59;100.00
46087;BME280;31824;49.648;8.640;2022-08-21T05:15:25;100374.47;;;15.77;100.00
46087;BME280;31824;49.648;8.640;2022-08-21T05:18:26;100376.09;;;15.86;100.00
46087;BME280;31824;49.648;8.640;2022-08-21T05:21:28;100379.34;;;15.94;100.00
46087;BME280;31824;49.648;8.640;2022-08-21T05:24:29;100378.53;;;15.95;100.00
46087;BME280;31824;49.648;8.640;2022-08-21T05:27:31;100386.69;;;15.98;100.00
46087;BME280;31824;49.648;8.640;2022-08-21T05:30:34;100383.47;;;15.91;100.00
46087;BME280;31824;49.648;8.640;2022-08-21T05:33:36;100378.28;;;16.04;100.00
46087;BME280;31824;49.648;8.640;2022-08-21T05:36:44;100389.78;;;16.16;100.00
46087;BME280;31824;49.648;8.640;2022-08-21T05:39:45;100392.00;;;16.10;100.00
46087;BME280;31824;49.648;8.640;2022-08-21T05:43:07;100393.38;;;16.05;100.00
46087;BME280;31824;49.648;8.640;2022-08-21T05:46:09;100395.22;;;16.06;100.00
46087;BME280;31824;49.648;8.640;2022-08-21T05:49:11;100391.63;;;16.17;100.00
46087;BME280;31824;49.648;8.640;2022-08-21T05:52:19;100389.88;;;16.18;100.00
46087;BME280;31824;49.648;8.640;2022-08-21T05:55:20;100389.06;;;16.31;100.00
46087;BME280;31824;49.648;8.640;2022-08-21T05:58:22;100385.53;;;16.18;100.00
46087;BME280;31824;49.648;8.640;2022-08-21T06:01:26;100378.38;;;16.06;100.00
46087;BME280;31824;49.648;8.640;2022-08-21T06:04:35;100387.34;;;16.19;100.00
46087;BME280;31824;49.648;8.640;2022-08-21T06:07:37;100386.50;;;16.32;100.00
46087;BME280;31824;49.648;8.640;2022-08-21T06:10:39;100387.78;;;16.37;100.00
46087;BME280;31824;49.648;8.640;2022-08-21T06:13:40;100389.38;;;16.35;100.00
46087;BME280;31824;49.648;8.640;2022-08-21T06:16:43;100390.53;;;16.39;100.00
46087;BME280;31824;49.648;8.640;2022-08-21T06:19:44;100391.34;;;16.38;100.00
46087;BME280;31824;49.648;8.640;2022-08-21T06:22:46;100384.97;;;16.48;100.00
46087;BME280;31824;49.648;8.640;2022-08-21T06:25:47;100387.72;;;16.49;100.00
46087;BME280;31824;49.648;8.640;2022-08-21T06:28:49;100394.63;;;16.59;100.00
46087;BME280;31824;49.648;8.640;2022-08-21T06:31:51;100398.97;;;16.59;100.00
46087;BME280;31824;49.648;8.640;2022-08-21T06:34:52;100400.34;;;16.65;100.00
46087;BME280;31824;49.648;8.640;2022-08-21T06:37:54;100394.31;;;16.80;100.00
46087;BME280;31824;49.648;8.640;2022-08-21T06:40:56;100402.13;;;16.90;100.00
46087;BME280;31824;49.648;8.640;2022-08-21T06:43:58;100401.06;;;17.00;100.00
46087;BME280;31824;49.648;8.640;2022-08-21T06:47:00;100398.53;;;17.15;100.00
46087;BME280;31824;49.648;8.640;2022-08-21T06:50:02;100406.22;;;17.24;100.00
46087;BME280;31824;49.648;8.640;2022-08-21T06:53:09;100406.44;;;17.40;100.00
46087;BME280;31824;49.648;8.640;2022-08-21T06:56:11;100403.00;;;17.54;100.00
46087;BME280;31824;49.648;8.640;2022-08-21T06:59:13;100394.41;;;17.45;100.00
46087;BME280;31824;49.648;8.640;2022-08-21T07:02:14;100405.94;;;17.46;100.00
46087;BME280;31824;49.648;8.640;2022-08-21T07:05:16;100406.50;;;17.94;100.00
46087;BME280;31824;49.648;8.640;2022-08-21T07:08:19;100405.50;;;17.92;100.00
46087;BME280;31824;49.648;8.640;2022-08-21T07:11:23;100407.28;;;18.19;100.00
46087;BME280;31824;49.648;8.640;2022-08-21T07:14:24;100409.28;;;18.50;100.00
46087;BME280;31824;49.648;8.640;2022-08-21T07:17:26;100401.94;;;18.33;100.00
46087;BME280;31824;49.648;8.640;2022-08-21T07:20:28;100395.59;;;18.72;100.00
46087;BME280;31824;49.648;8.640;2022-08-21T07:23:32;100402.00;;;18.89;100.00
46087;BME280;31824;49.648;8.640;2022-08-21T07:26:35;100402.59;;;18.99;100.00
46087;BME280;31824;49.648;8.640;2022-08-21T07:29:37;100399.63;;;18.94;100.00
46087;BME280;31824;49.648;8.640;2022-08-21T07:32:38;100390.84;;;19.10;100.00
46087;BME280;31824;49.648;8.640;2022-08-21T07:35:40;100392.72;;;19.26;100.00
46087;BME280;31824;49.648;8.640;2022-08-21T07:38:41;100387.38;;;19.11;100.00
46087;BME280;31824;49.648;8.640;2022-08-21T07:41:43;100388.03;;;19.22;100.00
46087;BME280;31824;49.648;8.640;2022-08-21T07:44:44;100384.00;;;19.44;100.00
46087;BME280;31824;49.648;8.640;2022-08-21T07:47:50;100385.81;;;19.45;100.00
46087;BME280;31824;49.648;8.640;2022-08-21T07:50:58;100382.22;;;19.59;100.00
46087;BME280;31824;49.648;8.640;2022-08-21T07:54:00;100387.19;;;19.68;100.00
46087;BME280;31824;49.648;8.640;2022-08-21T07:57:02;100376.34;;;19.65;100.00
46087;BME280;31824;49.648;8.640;2022-08-21T08:00:06;100376.81;;;19.87;100.00
46087;BME280;31824;49.648;8.640;2022-08-21T08:03:09;100386.00;;;19.93;100.00
46087;BME280;31824;49.648;8.640;2022-08-21T08:06:11;100374.78;;;20.15;100.00
46087;BME280;31824;49.648;8.640;2022-08-21T08:09:13;100379.56;;;20.20;100.00
46087;BME280;31824;49.648;8.640;2022-08-21T08:12:15;100377.59;;;20.49;100.00
46087;BME280;31824;49.648;8.640;2022-08-21T08:15:21;100391.06;;;20.67;100.00
46087;BME280;31824;49.648;8.640;2022-08-21T08:18:22;100390.94;;;20.49;100.00
46087;BME280;31824;49.648;8.640;2022-08-21T08:21:24;100373.69;;;20.59;100.00
46087;BME280;31824;49.648;8.640;2022-08-21T08:24:25;100377.00;;;20.70;100.00
46087;BME280;31824;49.648;8.640;2022-08-21T08:27:27;100382.16;;;21.00;100.00
46087;BME280;31824;49.648;8.640;2022-08-21T08:30:29;100374.38;;;21.04;100.00
46087;BME280;31824;49.648;8.640;2022-08-21T08:33:33;100370.97;;;20.90;100.00
46087;BME280;31824;49.648;8.640;2022-08-21T08:36:36;100366.81;;;20.96;100.00
46087;BME280;31824;49.648;8.640;2022-08-21T08:39:40;100361.78;;;21.02;100.00
46087;BME280;31824;49.648;8.640;2022-08-21T08:42:42;100358.78;;;21.30;100.00
46087;BME280;31824;49.648;8.640;2022-08-21T08:45:48;100346.78;;;21.56;100.00
46087;BME280;31824;49.648;8.640;2022-08-21T08:48:55;100344.59;;;21.66;100.00
46087;BME280;31824;49.648;8.640;2022-08-21T08:55:16;100343.94;;;21.89;100.00
46087;BME280;31824;49.648;8.640;2022-08-21T09:01:24;100343.78;;;22.22;100.00
46087;BME280;31824;49.648;8.640;2022-08-21T09:04:28;100342.13;;;22.26;100.00
46087;BME280;31824;49.648;8.640;2022-08-21T09:14:42;100330.66;;;22.66;100.00
46087;BME280;31824;49.648;8.640;2022-08-21T09:21:20;100317.72;;;22.97;100.00
46087;BME280;31824;49.648;8.640;2022-08-21T09:24:32;100322.16;;;23.16;100.00
46087;BME280;31824;49.648;8.640;2022-08-21T09:27:34;100318.13;;;23.06;100.00
46087;BME280;31824;49.648;8.640;2022-08-21T09:30:40;100319.97;;;23.07;100.00
46087;BME280;31824;49.648;8.640;2022-08-21T09:33:43;100314.03;;;23.34;100.00
46087;BME280;31824;49.648;8.640;2022-08-21T09:36:47;100316.16;;;23.21;89.25
46087;BME280;31824;49.648;8.640;2022-08-21T09:39:50;100319.97;;;23.48;86.10
46087;BME280;31824;49.648;8.640;2022-08-21T09:43:03;100320.38;;;23.80;92.78
46087;BME280;31824;49.648;8.640;2022-08-21T09:46:09;100317.75;;;23.58;87.96
46087;BME280;31824;49.648;8.640;2022-08-21T09:49:11;100326.72;;;24.03;75.61
46087;BME280;31824;49.648;8.640;2022-08-21T09:52:20;100320.25;;;23.76;75.43
46087;BME280;31824;49.648;8.640;2022-08-21T09:55:31;100325.06;;;23.41;84.46
46087;BME280;31824;49.648;8.640;2022-08-21T09:58:51;100312.78;;;23.25;83.93
46087;BME280;31824;49.648;8.640;2022-08-21T10:01:53;100320.97;;;23.72;84.59
46087;BME280;31824;49.648;8.640;2022-08-21T10:05:00;100317.44;;;23.94;74.43
46087;BME280;31824;49.648;8.640;2022-08-21T10:08:03;100318.91;;;24.32;76.52
46087;BME280;31824;49.648;8.640;2022-08-21T10:11:14;100315.59;;;24.39;68.30
46087;BME280;31824;49.648;8.640;2022-08-21T10:14:37;100311.59;;;24.52;71.33
46087;BME280;31824;49.648;8.640;2022-08-21T10:17:44;100318.91;;;24.32;73.21
46087;BME280;31824;49.648;8.640;2022-08-21T10:27:51;100304.25;;;24.70;71.26
46087;BME280;31824;49.648;8.640;2022-08-21T10:31:00;100304.25;;;24.94;70.22
46087;BME280;31824;49.648;8.640;2022-08-21T10:34:19;100306.72;;;24.88;66.07
46087;BME280;31824;49.648;8.640;2022-08-21T10:37:56;100297.38;;;25.03;65.94
46087;BME280;31824;49.648;8.640;2022-08-21T10:44:53;100302.06;;;25.34;62.97
46087;BME280;31824;49.648;8.640;2022-08-21T10:48:03;100290.84;;;25.46;64.22
46087;BME280;31824;49.648;8.640;2022-08-21T10:54:18;100281.94;;;25.23;58.95
46087;BME280;31824;49.648;8.640;2022-08-21T10:57:54;100274.78;;;25.23;59.09
46087;BME280;31824;49.648;8.640;2022-08-21T11:01:23;100282.16;;;25.03;55.96
46087;BME280;31824;49.648;8.640;2022-08-21T11:04:35;100285.13;;;25.64;55.76
46087;BME280;31824;49.648;8.640;2022-08-21T11:08:02;100279.66;;;25.34;56.23
46087;BME280;31824;49.648;8.640;2022-08-21T11:14:41;100277.72;;;25.84;58.10
46087;BME280;31824;49.648;8.640;2022-08-21T11:17:57;100275.16;;;26.18;55.80
46087;BME280;31824;49.648;8.640;2022-08-21T11:21:27;100257.34;;;26.21;55.21
46087;BME280;31824;49.648;8.640;2022-08-21T11:28:13;100263.22;;;26.08;52.64
46087;BME280;31824;49.648;8.640;2022-08-21T11:37:48;100255.81;;;26.93;55.18
46087;BME280;31824;49.648;8.640;2022-08-21T11:48:09;100243.31;;;26.95;49.98
46087;BME280;31824;49.648;8.640;2022-08-21T11:51:25;100236.66;;;26.83;49.17
46087;BME280;31824;49.648;8.640;2022-08-21T11:54:36;100242.69;;;26.42;49.38
46087;BME280;31824;49.648;8.640;2022-08-21T11:58:12;100231.44;;;26.89;51.49
46087;BME280;31824;49.648;8.640;2022-08-21T12:01:22;100238.59;;;27.23;49.78
46087;BME280;31824;49.648;8.640;2022-08-21T12:04:30;100233.47;;;26.34;45.14
46087;BME280;31824;49.648;8.640;2022-08-21T12:07:43;100227.59;;;26.49;45.29
46087;BME280;31824;49.648;8.640;2022-08-21T12:10:58;100220.19;;;26.72;46.61
46087;BME280;31824;49.648;8.640;2022-08-21T12:14:13;100227.59;;;27.14;46.10
46087;BME280;31824;49.648;8.640;2022-08-21T12:17:22;100226.38;;;27.01;44.24
46087;BME280;31824;49.648;8.640;2022-08-21T12:20:35;100217.31;;;27.34;44.69
46087;BME280;31824;49.648;8.640;2022-08-21T12:30:37;100225.28;;;27.29;43.01
46087;BME280;31824;49.648;8.640;2022-08-21T12:33:40;100217.09;;;27.61;41.38
46087;BME280;31824;49.648;8.640;2022-08-21T12:36:45;100229.72;;;27.62;39.16
46087;BME280;31824;49.648;8.640;2022-08-21T12:39:51;100229.59;;;27.58;41.01
46087;BME280;31824;49.648;8.640;2022-08-21T12:42:55;100221.03;;;27.38;43.00
46087;BME280;31824;49.648;8.640;2022-08-21T12:45:59;100215.91;;;27.49;39.40
46087;BME280;31824;49.648;8.640;2022-08-21T12:49:18;100211.84;;;27.68;39.21
46087;BME280;31824;49.648;8.640;2022-08-21T12:52:38;100202.41;;;27.88;38.33
46087;BME280;31824;49.648;8.640;2022-08-21T12:55:42;100209.81;;;27.99;38.18
46087;BME280;31824;49.648;8.640;2022-08-21T12:58:47;100211.72;;;27.63;38.58
46087;BME280;31824;49.648;8.640;2022-08-21T13:01:50;100205.63;;;28.11;38.36
46087;BME280;31824;49.648;8.640;2022-08-21T13:04:54;100207.91;;;27.94;38.75
46087;BME280;31824;49.648;8.640;2022-08-21T13:07:58;100207.69;;;27.84;38.56
46087;BME280;31824;49.648;8.640;2022-08-21T13:11:03;100209.63;;;27.89;38.54
46087;BME280;31824;49.648;8.640;2022-08-21T13:14:36;100209.09;;;28.50;38.53
46087;BME280;31824;49.648;8.640;2022-08-21T13:17:48;100210.59;;;28.78;38.51
46087;BME280;31824;49.648;8.640;2022-08-21T13:20:52;100198.44;;;28.58;38.62
46087;BME280;31824;49.648;8.640;2022-08-21T13:27:45;100203.44;;;28.82;36.84
46087;BME280;31824;49.648;8.640;2022-08-21T13:30:57;100201.47;;;28.73;38.09
46087;BME280;31824;49.648;8.640;2022-08-21T13:33:59;100196.88;;;28.69;37.18
46087;BME280;31824;49.648;8.640;2022-08-21T13:37:05;100194.69;;;28.50;35.42
46087;BME280;31824;49.648;8.640;2022-08-21T13:40:11;100197.13;;;28.83;37.73
46087;BME280;31824;49.648;8.640;2022-08-21T13:43:17;100188.50;;;28.55;37.77
46087;BME280;31824;49.648;8.640;2022-08-21T13:46:22;100204.19;;;28.75;37.84
46087;BME280;31824;49.648;8.640;2022-08-21T13:49:30;100193.75;;;28.49;38.72
46087;BME280;31824;49.648;8.640;2022-08-21T13:52:32;100191.81;;;28.40;37.32
46087;BME280;31824;49.648;8.640;2022-08-21T13:55:38;100192.91;;;28.97;36.49
46087;BME280;31824;49.648;8.640;2022-08-21T13:58:46;100190.38;;;29.08;37.66
46087;BME280;31824;49.648;8.640;2022-08-21T14:01:54;100184.28;;;29.22;37.40
46087;BME280;31824;49.648;8.640;2022-08-21T14:05:01;100174.69;;;28.40;39.83
46087;BME280;31824;49.648;8.640;2022-08-21T14:08:28;100169.56;;;28.55;37.34
46087;BME280;31824;49.648;8.640;2022-08-21T14:11:34;100173.31;;;28.62;37.80
46087;BME280;31824;49.648;8.640;2022-08-21T14:14:39;100174.81;;;29.49;37.55
46087;BME280;31824;49.648;8.640;2022-08-21T14:17:42;100166.06;;;28.61;37.20
46087;BME280;31824;49.648;8.640;2022-08-21T14:20:44;100161.31;;;28.02;37.23
46087;BME280;31824;49.648;8.640;2022-08-21T14:23:46;100147.56;;;27.51;38.98
46087;BME280;31824;49.648;8.640;2022-08-21T14:26:51;100152.31;;;28.03;37.77
46087;BME280;31824;49.648;8.640;2022-08-21T14:29:58;100154.38;;;28.62;38.80
46087;BME280;31824;49.648;8.640;2022-08-21T14:33:03;100144.78;;;28.76;37.27
46087;BME280;31824;49.648;8.640;2022-08-21T14:36:05;100135.03;;;28.88;38.34
46087;BME280;31824;49.648;8.640;2022-08-21T14:39:08;100136.66;;;29.32;35.06
46087;BME280;31824;49.648;8.640;2022-08-21T14:42:10;100128.75;;;29.45;35.75
46087;BME280;31824;49.648;8.640;2022-08-21T14:45:18;100134.84;;;29.30;36.96
46087;BME280;31824;49.648;8.640;2022-08-21T14:48:27;100133.97;;;29.33;37.15
46087;BME280;31824;49.648;8.640;2022-08-21T14:51:29;100126.97;;;29.47;36.25
46087;BME280;31824;49.648;8.640;2022-08-21T14:54:31;100124.25;;;29.46;35.16
46087;BME280;31824;49.648;8.640;2022-08-21T14:57:33;100116.38;;;29.64;35.66
46087;BME280;31824;49.648;8.640;2022-08-21T15:00:35;100114.03;;;29.89;36.79
46087;BME280;31824;49.648;8.640;2022-08-21T15:03:37;100115.31;;;29.53;34.87
46087;BME280;31824;49.648;8.640;2022-08-21T15:06:39;100112.72;;;29.59;36.27
46087;BME280;31824;49.648;8.640;2022-08-21T15:09:41;100118.66;;;30.00;36.41
46087;BME280;31824;49.648;8.640;2022-08-21T15:12:42;100115.75;;;29.84;36.96
46087;BME280;31824;49.648;8.640;2022-08-21T15:15:45;100109.16;;;29.63;37.72
46087;BME280;31824;49.648;8.640;2022-08-21T15:18:49;100110.38;;;29.86;35.81
46087;BME280;31824;49.648;8.640;2022-08-21T15:21:50;100120.91;;;29.66;35.32
46087;BME280;31824;49.648;8.640;2022-08-21T15:24:52;100112.91;;;29.75;35.87
46087;BME280;31824;49.648;8.640;2022-08-21T15:27:54;100115.22;;;29.47;36.23
46087;BME280;31824;49.648;8.640;2022-08-21T15:30:55;100109.56;;;29.94;38.75
46087;BME280;31824;49.648;8.640;2022-08-21T15:33:57;100107.91;;;30.04;35.76
46087;BME280;31824;49.648;8.640;2022-08-21T15:36:59;100108.41;;;29.14;35.09
46087;BME280;31824;49.648;8.640;2022-08-21T15:40:00;100102.38;;;29.30;36.58
46087;BME280;31824;49.648;8.640;2022-08-21T15:43:04;100115.38;;;29.56;33.91
46087;BME280;31824;49.648;8.640;2022-08-21T15:46:07;100111.19;;;29.81;34.87
46087;BME280;31824;49.648;8.640;2022-08-21T15:49:11;100106.63;;;29.77;35.94
46087;BME280;31824;49.648;8.640;2022-08-21T15:52:19;100108.22;;;29.60;34.21
46087;BME280;31824;49.648;8.640;2022-08-21T15:55:20;100094.66;;;29.58;34.01
46087;BME280;31824;49.648;8.640;2022-08-21T15:58:22;100093.00;;;29.73;36.69
46087;BME280;31824;49.648;8.640;2022-08-21T16:01:24;100092.38;;;29.25;35.76
46087;BME280;31824;49.648;8.640;2022-08-21T16:04:26;100088.78;;;29.26;36.71
46087;BME280;31824;49.648;8.640;2022-08-21T16:07:28;100089.09;;;29.47;35.12
46087;BME280;31824;49.648;8.640;2022-08-21T16:10:30;100096.72;;;29.15;34.61
46087;BME280;31824;49.648;8.640;2022-08-21T16:13:37;100102.81;;;29.03;36.18
46087;BME280;31824;49.648;8.640;2022-08-21T16:16:39;100105.38;;;28.94;36.26
46087;BME280;31824;49.648;8.640;2022-08-21T16:19:41;100093.66;;;28.92;35.36
46087;BME280;31824;49.648;8.640;2022-08-21T16:22:43;100089.38;;;28.54;34.18
46087;BME280;31824;49.648;8.640;2022-08-21T16:25:45;100085.75;;;28.52;35.79
46087;BME280;31824;49.648;8.640;2022-08-21T16:28:48;100078.06;;;27.00;47.24
46087;BME280;31824;49.648;8.640;2022-08-21T16:31:52;100066.97;;;24.44;100.00
46087;BME280;31824;49.648;8.640;2022-08-21T16:34:54;100054.38;;;22.13;100.00
46087;BME280;31824;49.648;8.640;2022-08-21T16:37:57;100059.38;;;22.46;100.00
46087;BME280;31824;49.648;8.640;2022-08-21T16:40:59;100049.22;;;21.77;100.00
46087;BME280;31824;49.648;8.640;2022-08-21T16:44:01;100052.03;;;21.61;100.00
46087;BME280;31824;49.648;8.640;2022-08-21T16:47:03;100052.41;;;23.63;83.48
46087;BME280;31824;49.648;8.640;2022-08-21T16:50:06;100052.47;;;24.39;82.22
46087;BME280;31824;49.648;8.640;2022-08-21T16:53:08;100056.47;;;25.34;61.65
46087;BME280;31824;49.648;8.640;2022-08-21T16:56:11;100052.31;;;26.07;62.02
46087;BME280;31824;49.648;8.640;2022-08-21T16:59:13;100058.50;;;26.72;53.25
46087;BME280;31824;49.648;8.640;2022-08-21T17:02:28;100052.25;;;27.11;48.45